Time;durP1;ratioP1;P1;durP2;ratioP2;P2;SDS_P1;SDS_P2;PMS_P1;PMS_P2;Temp;Humidity;BMP_temperature;BMP_pressure;BME280_temperature;BME280_humidity;BME280_pressure;Samples;Min_cycle;Max_cycle;Signal;HPM_P1;HPM_P2
2023/03/04 00:01:35;;;;;;;12.68;5.82;;;;;;;19.17;45.42;97054.00;10456824;28;20049;-54
2023/03/04 00:06:55;;;;;;;8.48;5.10;;;;;;;19.15;45.60;97054.28;10456306;28;20057;-54
2023/03/04 00:12:14;;;;;;;8.88;5.15;;;;;;;19.15;45.42;97048.06;10456759;28;20053;-54
2023/03/04 00:17:33;;;;;;;9.70;5.30;;;;;;;19.11;45.37;97045.25;10456570;28;20061;-55
2023/03/04 00:22:53;;;;;;;10.40;5.22;;;;;;;19.11;45.28;97034.44;10456516;28;20049;-55
2023/03/04 00:28:12;;;;;;;9.70;4.88;;;;;;;19.10;45.32;97040.16;10455788;28;20053;-55
2023/03/04 00:33:32;;;;;;;9.32;5.18;;;;;;;19.08;45.35;97045.84;10456196;28;20052;-54
2023/03/04 00:38:51;;;;;;;8.10;4.63;;;;;;;19.07;45.17;97043.47;10456427;28;20394;-54
2023/03/04 00:44:11;;;;;;;7.60;4.40;;;;;;;19.06;45.13;97039.19;10469289;28;20063;-54
2023/03/04 00:49:30;;;;;;;8.20;4.80;;;;;;;19.02;45.06;97036.31;10459587;28;20064;-55
2023/03/04 00:54:50;;;;;;;9.88;4.90;;;;;;;19.01;45.15;97023.91;10463943;28;20072;-55
2023/03/04 01:00:10;;;;;;;8.52;4.75;;;;;;;19.00;45.09;97027.75;10463379;28;20056;-54
2023/03/04 01:05:30;;;;;;;8.52;4.95;;;;;;;18.99;44.77;97011.84;10463439;28;20048;-54
2023/03/04 01:10:50;;;;;;;7.95;4.88;;;;;;;18.97;44.89;97009.44;10462397;28;20055;-55
2023/03/04 01:16:11;;;;;;;7.68;5.10;;;;;;;18.95;44.86;97004.41;10462283;28;20086;-55
2023/03/04 01:21:31;;;;;;;8.52;4.65;;;;;;;18.94;44.86;96999.31;10447712;28;20060;-55
2023/03/04 01:26:50;;;;;;;8.52;4.22;;;;;;;18.93;44.68;97003.09;10462886;28;20048;-55
2023/03/04 01:32:10;;;;;;;7.10;4.40;;;;;;;18.91;44.76;96991.81;10462319;28;20059;-55
2023/03/04 01:37:29;;;;;;;6.18;3.95;;;;;;;18.90;44.79;96979.44;10462033;28;20412;-55
2023/03/04 01:42:48;;;;;;;6.90;4.43;;;;;;;18.88;44.59;96974.34;10461254;28;20492;-55
2023/03/04 01:48:09;;;;;;;6.32;4.10;;;;;;;18.86;44.53;96965.78;10460782;28;20500;-55
2023/03/04 01:53:30;;;;;;;6.28;3.92;;;;;;;18.86;44.65;96965.00;10446571;28;20045;-54
2023/03/04 01:59:08;;;;;;;5.22;3.72;;;;;;;18.83;44.56;96949.41;10445917;28;20053;-55
2023/03/04 02:04:30;;;;;;;6.82;4.05;;;;;;;18.81;44.37;96943.53;10461187;28;20053;-54
2023/03/04 02:09:50;;;;;;;5.93;3.75;;;;;;;18.80;44.51;96940.06;10460841;28;20053;-55
2023/03/04 02:15:09;;;;;;;6.20;3.92;;;;;;;18.78;44.38;96934.16;10460068;28;20489;-55
2023/03/04 02:20:29;;;;;;;6.35;4.10;;;;;;;18.76;44.39;96929.06;10460476;28;20056;-54
2023/03/04 02:26:06;;;;;;;6.35;3.67;;;;;;;18.75;44.18;96926.66;10460202;28;20057;-54
2023/03/04 02:31:27;;;;;;;5.93;3.35;;;;;;;18.74;44.13;96922.41;10444666;28;20056;-55
2023/03/04 02:36:50;;;;;;;4.80;3.33;;;;;;;18.73;44.31;96915.41;10444781;28;20049;-55
2023/03/04 02:42:10;;;;;;;5.43;3.42;;;;;;;18.71;44.14;96914.91;10429941;28;20055;-54
2023/03/04 02:47:31;;;;;;;5.43;3.63;;;;;;;18.69;44.18;96901.75;10443769;28;20525;-54
2023/03/04 02:52:50;;;;;;;5.75;3.28;;;;;;;18.67;43.94;96895.88;10458378;28;20060;-54
2023/03/04 02:58:12;;;;;;;5.40;3.17;;;;;;;18.66;43.95;96897.00;10443897;28;20052;-54
2023/03/04 03:03:32;;;;;;;5.60;3.60;;;;;;;18.65;43.88;96894.59;10443916;28;20049;-54
2023/03/04 03:08:52;;;;;;;4.57;3.58;;;;;;;18.64;43.93;96895.69;10457772;28;20057;-54
2023/03/04 03:14:12;;;;;;;4.57;3.33;;;;;;;18.62;43.85;96890.63;10457682;28;20122;-54
2023/03/04 03:19:31;;;;;;;4.93;3.45;;;;;;;18.60;43.79;96887.44;10458302;28;20062;-54
2023/03/04 03:24:53;;;;;;;4.63;3.00;;;;;;;18.60;43.93;96884.72;10458103;28;20049;-54
2023/03/04 03:30:16;;;;;;;5.55;3.65;;;;;;;18.57;43.82;96878.06;10457702;28;20053;-53
2023/03/04 03:35:35;;;;;;;5.18;3.35;;;;;;;18.56;43.73;96875.69;10457602;28;20056;-55
2023/03/04 03:40:55;;;;;;;4.60;3.35;;;;;;;18.54;43.73;96869.81;10457588;28;20057;-54
2023/03/04 03:46:15;;;;;;;5.25;3.15;;;;;;;18.53;43.67;96870.94;10457202;28;20057;-54
2023/03/04 03:51:34;;;;;;;5.40;3.08;;;;;;;18.52;43.81;96869.34;10456688;28;20056;-55
2023/03/04 03:56:53;;;;;;;3.95;3.28;;;;;;;18.49;43.56;96870.75;10456708;28;20060;-54
2023/03/04 04:02:12;;;;;;;4.75;2.88;;;;;;;18.50;43.64;96871.56;10456850;28;20053;-55
2023/03/04 04:07:32;;;;;;;3.80;3.05;;;;;;;18.47;43.43;96861.41;10456881;28;20053;-55
2023/03/04 04:12:51;;;;;;;4.22;2.90;;;;;;;18.45;43.47;96859.03;10456505;28;20060;-53
2023/03/04 04:18:10;;;;;;;4.68;2.90;;;;;;;18.44;43.46;96862.81;10456783;28;20087;-55
2023/03/04 04:23:30;;;;;;;4.30;2.65;;;;;;;18.43;43.52;96865.84;10460458;28;20064;-55
2023/03/04 04:28:50;;;;;;;3.00;2.33;;;;;;;18.42;43.45;96864.25;10464802;28;20057;-55
2023/03/04 04:34:09;;;;;;;4.05;2.97;;;;;;;18.38;43.48;96866.78;10464462;28;20052;-55
2023/03/04 04:39:28;;;;;;;4.15;2.95;;;;;;;18.37;43.35;96865.19;10463559;28;20045;-55
2023/03/04 04:44:48;;;;;;;4.30;2.72;;;;;;;18.37;43.36;96865.19;10464207;28;20110;-55
2023/03/04 04:50:08;;;;;;;4.57;2.85;;;;;;;18.35;43.49;96865.50;10471036;28;20064;-55
2023/03/04 04:55:28;;;;;;;3.53;2.40;;;;;;;18.33;43.35;96856.16;10463065;28;20502;-55
2023/03/04 05:00:47;;;;;;;3.17;2.53;;;;;;;18.32;43.30;96859.94;10476888;28;20041;-54
2023/03/04 05:06:08;;;;;;;3.95;2.80;;;;;;;18.32;43.30;96859.94;10476600;28;20037;-55
2023/03/04 05:11:28;;;;;;;3.70;2.67;;;;;;;18.29;43.37;96869.47;10463362;28;20061;-54
2023/03/04 05:16:47;;;;;;;3.10;2.45;;;;;;;18.29;43.42;96863.28;10463157;28;20053;-55
2023/03/04 05:22:07;;;;;;;3.35;2.50;;;;;;;18.26;43.30;96866.59;10462041;28;20057;-54
2023/03/04 05:27:26;;;;;;;4.00;2.60;;;;;;;18.25;43.29;96868.50;10462348;28;20064;-54
2023/03/04 05:32:45;;;;;;;3.50;2.60;;;;;;;18.24;43.12;96869.59;10460745;28;20501;-54
2023/03/04 05:38:07;;;;;;;3.75;2.85;;;;;;;18.22;43.08;96882.59;10462104;28;20052;-55
2023/03/04 05:43:27;;;;;;;2.92;2.50;;;;;;;18.21;43.15;96885.59;10461759;28;20049;-54
2023/03/04 05:48:47;;;;;;;2.50;2.20;;;;;;;18.20;43.04;96890.22;10461096;28;20056;-55
2023/03/04 05:54:06;;;;;;;3.15;2.47;;;;;;;18.19;43.18;96899.41;10461961;28;20057;-54
2023/03/04 05:59:25;;;;;;;2.80;2.30;;;;;;;18.17;43.33;96901.63;10461303;28;20049;-55
2023/03/04 06:04:45;;;;;;;3.45;2.92;;;;;;;18.19;42.80;96902.13;10461330;28;20053;-55
2023/03/04 06:10:05;;;;;;;3.38;3.08;;;;;;;18.18;41.94;96903.22;10460695;28;20049;-55
2023/03/04 06:15:24;;;;;;;4.55;3.67;;;;;;;18.15;42.31;96909.22;10460147;28;20055;-54
2023/03/04 06:20:44;;;;;;;4.55;3.45;;;;;;;18.12;42.37;96916.03;10460156;28;20057;-53
2023/03/04 06:26:08;;;;;;;4.88;3.40;;;;;;;18.10;42.53;96923.63;10419003;28;20064;-54
2023/03/04 06:31:27;;;;;;;4.03;3.20;;;;;;;18.10;42.63;96928.25;10418770;28;20405;-54
2023/03/04 06:36:46;;;;;;;4.03;2.97;;;;;;;18.10;42.72;96941.72;10418097;28;20057;-54
2023/03/04 06:42:06;;;;;;;3.58;3.20;;;;;;;18.09;42.60;96940.13;10418681;28;20073;-54
2023/03/04 06:47:27;;;;;;;11.50;9.30;;;;;;;17.71;36.52;96937.84;10420456;28;20057;-54
2023/03/04 06:52:48;;;;;;;5.15;4.57;;;;;;;17.71;41.11;96937.84;10417147;28;20057;-55
2023/03/04 06:58:07;;;;;;;4.82;3.97;;;;;;;17.81;41.61;96937.59;10417912;28;20057;-55
2023/03/04 07:03:27;;;;;;;4.60;4.00;;;;;;;17.90;41.65;96940.38;10416926;28;20050;-55
2023/03/04 07:08:46;;;;;;;5.95;3.65;;;;;;;17.94;41.72;96942.13;10417046;28;20061;-55
2023/03/04 07:14:06;;;;;;;4.97;3.80;;;;;;;17.97;42.14;96949.59;10429997;28;20047;-55
2023/03/04 07:19:25;;;;;;;4.63;3.58;;;;;;;18.01;42.30;96957.84;10417348;28;20049;-55
2023/03/04 07:24:45;;;;;;;5.60;3.60;;;;;;;18.01;42.39;96960.53;10416721;28;20056;-55
2023/03/04 07:30:05;;;;;;;4.82;3.78;;;;;;;18.06;42.47;96962.31;10414039;28;20490;-55
2023/03/04 07:35:25;;;;;;;5.03;3.50;;;;;;;18.07;42.50;96956.63;10414207;28;20059;-55
2023/03/04 07:40:44;;;;;;;3.85;3.45;;;;;;;18.11;42.56;96962.16;10413965;28;20053;-55
2023/03/04 07:46:04;;;;;;;4.40;3.47;;;;;;;18.14;42.46;96961.56;10415965;28;20064;-55
2023/03/04 07:51:26;;;;;;;4.10;3.00;;;;;;;18.15;42.44;96955.88;10415610;28;20120;-53
2023/03/04 07:56:45;;;;;;;7.80;3.20;;;;;;;18.21;42.50;96953.00;10415399;28;20057;-56
2023/03/04 08:02:04;;;;;;;4.18;3.47;;;;;;;18.25;42.68;96951.28;10415136;28;20053;-56
2023/03/04 08:07:24;;;;;;;5.20;3.13;;;;;;;18.27;43.01;96960.66;10415576;28;20061;-56
2023/03/04 08:12:44;;;;;;;9.70;3.20;;;;;;;18.32;43.05;96946.25;10415429;28;20054;-56
2023/03/04 08:18:03;;;;;;;4.72;3.22;;;;;;;18.36;42.41;96952.59;10414852;28;20508;-56
2023/03/04 08:23:23;;;;;;;5.50;3.03;;;;;;;18.40;42.50;96956.25;10415073;28;20601;-57
2023/03/04 08:28:44;;;;;;;5.53;4.30;;;;;;;18.37;39.89;96952.28;10414506;28;20506;-57
2023/03/04 08:34:04;;;;;;;3.80;3.40;;;;;;;18.42;41.64;96955.94;10414092;28;20490;-57
2023/03/04 08:39:24;;;;;;;6.50;3.08;;;;;;;18.47;41.66;96959.31;10414632;28;20059;-54
2023/03/04 08:44:44;;;;;;;4.00;3.05;;;;;;;18.55;42.16;96960.44;10414354;28;20057;-56
2023/03/04 08:50:05;;;;;;;3.72;3.15;;;;;;;18.59;42.32;96961.41;10414138;28;20057;-57
2023/03/04 08:55:25;;;;;;;6.60;3.75;;;;;;;18.66;42.06;96955.53;10414541;28;20057;-57
2023/03/04 09:00:47;;;;;;;9.00;3.70;;;;;;;18.69;41.91;96963.81;10411926;28;20053;-55
2023/03/04 09:06:07;;;;;;;6.22;3.47;;;;;;;18.75;42.00;96970.63;10411573;28;20069;-56
2023/03/04 09:11:27;;;;;;;5.65;3.10;;;;;;;18.80;42.28;96966.22;10416864;28;20387;-56
2023/03/04 09:16:46;;;;;;;6.53;3.92;;;;;;;18.86;43.12;96973.09;10419988;28;20073;-58
2023/03/04 09:22:05;;;;;;;5.55;3.53;;;;;;;18.91;42.47;96972.94;10418517;28;20056;-57
2023/03/04 09:27:25;;;;;;;4.80;3.42;;;;;;;18.97;42.63;96974.34;10419026;28;20053;-56
2023/03/04 09:32:44;;;;;;;5.55;3.22;;;;;;;19.02;42.73;96968.81;10420015;28;20050;-57
2023/03/04 09:38:04;;;;;;;29.83;10.88;;;;;;;19.08;43.89;96970.25;10420611;28;20054;-57
2023/03/04 09:43:28;;;;;;;18.42;8.27;;;;;;;19.11;44.69;96961.53;10421146;28;20081;-57
2023/03/04 09:48:50;;;;;;;358.73;129.25;;;;;;;19.18;45.61;96961.03;10405241;28;20061;-57
2023/03/04 09:54:31;;;;;;;138.82;50.50;;;;;;;19.24;46.55;96948.97;10403782;28;20057;-56
2023/03/04 10:00:13;;;;;;;90.93;35.38;;;;;;;19.29;46.48;96956.13;10404038;28;20111;-56
2023/03/04 10:05:48;;;;;;;80.53;32.70;;;;;;;19.36;46.36;96956.44;10419254;28;20057;-56
2023/03/04 10:11:13;;;;;;;73.47;29.73;;;;;;;19.40;46.52;96940.38;10419307;28;20437;-57
2023/03/04 10:16:46;;;;;;;61.92;26.73;;;;;;;19.46;46.76;96949.91;10419320;28;20064;-59
2023/03/04 10:22:19;;;;;;;57.83;23.42;;;;;;;19.50;46.33;96940.84;10428146;28;20045;-57
2023/03/04 10:27:40;;;;;;;56.00;24.73;;;;;;;19.57;47.35;96940.34;10459423;28;20052;-58
2023/03/04 10:33:00;;;;;;;57.75;24.63;;;;;;;19.62;47.53;96931.28;10459685;28;20057;-57
2023/03/04 10:38:20;;;;;;;49.78;23.15;;;;;;;19.67;47.71;96931.91;10457812;28;20448;-56
2023/03/04 10:43:42;;;;;;;49.67;22.83;;;;;;;19.72;47.88;96925.59;10444396;28;20049;-56
2023/03/04 10:49:02;;;;;;;51.95;21.88;;;;;;;19.78;48.03;96918.06;10444621;28;20133;-56
2023/03/04 10:54:27;;;;;;;41.03;19.15;;;;;;;19.83;47.60;96909.81;10459416;28;20064;-57
2023/03/04 10:59:58;;;;;;;41.30;18.77;;;;;;;19.86;48.08;96901.84;10458936;28;20056;-56
2023/03/04 11:05:24;;;;;;;14.13;9.75;;;;;;;19.22;30.36;96901.78;10458584;28;20064;-56
2023/03/04 11:10:43;;;;;;;11.63;6.55;;;;;;;18.81;31.58;96881.47;10471917;28;20122;-55
2023/03/04 11:16:22;;;;;;;12.52;7.38;;;;;;;19.22;37.16;96880.97;10424593;28;20049;-55
2023/03/04 11:21:42;;;;;;;13.60;9.25;;;;;;;19.49;38.74;96874.41;10416709;28;20068;-55
2023/03/04 11:27:07;;;;;;;18.42;12.18;;;;;;;19.65;38.98;96854.97;10401962;28;20103;-55
2023/03/04 11:32:28;;;;;;;16.95;11.55;;;;;;;19.74;40.60;96872.00;10415816;28;20049;-53
2023/03/04 11:38:09;;;;;;;17.95;10.02;;;;;;;19.82;41.23;96854.16;10416091;28;20409;-57
2023/03/04 11:43:41;;;;;;;16.10;8.60;;;;;;;19.87;37.44;96856.66;10416033;28;20052;-56
2023/03/04 11:49:13;;;;;;;12.70;7.93;;;;;;;19.91;40.24;96852.97;10415576;28;20476;-55
2023/03/04 11:55:06;;;;;;;11.75;7.63;;;;;;;19.94;40.36;96846.94;10401295;28;20053;-55
2023/03/04 12:00:27;;;;;;;12.82;6.75;;;;;;;19.99;40.88;96837.84;10415628;28;20124;-56
2023/03/04 12:05:58;;;;;;;13.43;7.35;;;;;;;20.05;41.42;96830.34;10415324;28;20115;-55
2023/03/04 12:11:17;;;;;;;13.93;7.07;;;;;;;20.08;41.50;96835.09;10400865;28;20057;-56
2023/03/04 12:16:48;;;;;;;12.00;6.68;;;;;;;20.10;42.23;96822.81;10414805;28;20490;-55
2023/03/04 12:22:11;;;;;;;10.35;5.75;;;;;;;20.17;42.99;96824.22;10413960;28;20045;-56
2023/03/04 12:27:57;;;;;;;11.48;5.80;;;;;;;20.19;42.16;96817.38;10454159;28;20084;-56
2023/03/04 12:33:34;;;;;;;11.77;6.32;;;;;;;20.22;42.58;96807.81;10425741;28;20521;-57
2023/03/04 12:39:12;;;;;;;8.70;5.43;;;;;;;20.25;42.73;96804.47;10415001;28;20076;-56
2023/03/04 12:45:02;;;;;;;12.50;5.17;;;;;;;20.27;43.17;96803.00;10403999;28;20555;-56
2023/03/04 12:50:31;;;;;;;8.70;4.57;;;;;;;20.31;43.02;96811.25;10432727;28;20052;-55
2023/03/04 12:55:53;;;;;;;9.82;5.85;;;;;;;20.30;43.21;96796.91;10475026;28;20102;-55
2023/03/04 13:01:49;;;;;;;15.95;5.00;;;;;;;20.32;43.46;96797.38;10461590;28;20048;-55
2023/03/04 13:07:34;;;;;;;9.43;5.05;;;;;;;20.32;43.39;96791.97;10460574;28;20055;-56
2023/03/04 13:12:59;;;;;;;9.23;4.50;;;;;;;20.33;43.35;96793.56;10461157;28;20440;-56
2023/03/04 13:18:33;;;;;;;10.43;4.75;;;;;;;20.34;43.62;96792.44;10460953;28;20057;-55
2023/03/04 13:23:54;;;;;;;12.00;4.80;;;;;;;20.34;43.60;96781.63;10445709;28;20079;-55
2023/03/04 13:29:13;;;;;;;10.02;4.13;;;;;;;20.34;43.90;96786.25;10448421;28;20080;-52
2023/03/04 13:34:48;;;;;;;5.45;3.97;;;;;;;20.35;43.95;96775.09;10418786;28;20065;-55
2023/03/04 13:40:21;;;;;;;8.70;4.72;;;;;;;20.35;43.26;96771.59;10403263;28;20053;-56
2023/03/04 13:45:40;;;;;;;6.43;3.80;;;;;;;20.35;41.61;96772.38;10418092;28;20576;-56
2023/03/04 13:51:00;;;;;;;6.05;3.88;;;;;;;20.35;42.05;96769.69;10417696;28;20057;-55
2023/03/04 13:56:30;;;;;;;6.93;4.18;;;;;;;20.33;42.07;96768.44;10417472;28;20383;-56
2023/03/04 14:01:55;;;;;;;5.93;3.88;;;;;;;20.32;42.06;96767.63;10403098;28;20403;-56
2023/03/04 14:07:25;;;;;;;10.18;3.75;;;;;;;20.31;42.35;96757.94;10417584;28;20054;-56
2023/03/04 14:12:48;;;;;;;6.07;3.85;;;;;;;20.31;42.35;96749.03;10416983;28;20498;-56
2023/03/04 14:18:10;;;;;;;9.30;3.75;;;;;;;20.30;42.13;96748.22;10402395;28;20087;-54
2023/03/04 14:23:32;;;;;;;3.90;3.25;;;;;;;20.30;42.13;96753.63;10402189;28;20053;-56
2023/03/04 14:28:56;;;;;;;7.70;3.67;;;;;;;20.28;42.10;96749.69;10421453;28;20056;-56
2023/03/04 14:34:33;;;;;;;5.25;3.38;;;;;;;20.27;42.33;96751.59;10459737;28;20049;-56
2023/03/04 14:39:56;;;;;;;6.15;3.67;;;;;;;20.27;42.39;96750.81;10459274;28;20451;-56
2023/03/04 14:45:17;;;;;;;4.10;3.00;;;;;;;20.27;40.74;96751.59;10459083;28;20106;-56
2023/03/04 14:50:47;;;;;;;5.72;3.42;;;;;;;20.26;41.86;96741.91;10456169;28;20064;-62
2023/03/04 14:56:08;;;;;;;5.55;3.30;;;;;;;20.25;42.11;96740.31;10468837;28;20119;-63
2023/03/04 15:01:32;;;;;;;5.78;3.20;;;;;;;20.24;42.65;96736.03;10445105;28;20052;-60
2023/03/04 15:06:52;;;;;;;7.05;3.10;;;;;;;20.24;43.44;96736.03;10457853;28;20049;-55
2023/03/04 15:12:12;;;;;;;5.15;3.22;;;;;;;20.25;44.07;96740.31;10437445;28;20050;-56
2023/03/04 15:17:36;;;;;;;4.93;3.00;;;;;;;20.25;44.13;96737.63;10436347;28;20046;-57
2023/03/04 15:22:59;;;;;;;5.22;2.60;;;;;;;20.25;44.32;96728.72;10416696;28;20049;-55
2023/03/04 15:28:19;;;;;;;6.47;2.83;;;;;;;20.23;44.34;96737.16;10416808;28;20123;-58
2023/03/04 15:33:39;;;;;;;7.43;2.70;;;;;;;20.23;44.98;96731.75;10401651;28;20045;-57
2023/03/04 15:38:59;;;;;;;7.63;2.90;;;;;;;20.22;44.70;96732.84;10416671;28;20060;-56
2023/03/04 15:44:19;;;;;;;5.03;2.75;;;;;;;20.22;45.01;96732.84;10416394;28;20053;-56
2023/03/04 15:49:43;;;;;;;4.15;2.50;;;;;;;20.22;45.00;96722.03;10424181;28;20103;-57
2023/03/04 15:55:03;;;;;;;4.70;2.45;;;;;;;20.21;45.09;96714.25;10415019;28;20053;-56
2023/03/04 16:00:23;;;;;;;4.60;3.00;;;;;;;20.20;45.07;96718.09;10436391;28;20057;-57
2023/03/04 16:05:44;;;;;;;4.90;2.70;;;;;;;20.20;45.36;96716.16;10456703;28;20045;-57
2023/03/04 16:11:04;;;;;;;3.42;2.80;;;;;;;20.19;45.58;96706.50;10456267;28;20045;-57
2023/03/04 16:16:23;;;;;;;5.28;3.97;;;;;;;20.20;46.34;96712.69;10456199;28;20076;-57
2023/03/04 16:21:43;;;;;;;5.00;3.97;;;;;;;20.19;47.38;96711.09;10449581;28;20056;-58
2023/03/04 16:27:02;;;;;;;8.30;3.55;;;;;;;20.18;48.18;96715.72;10464482;28;20053;-57
2023/03/04 16:32:23;;;;;;;6.03;3.17;;;;;;;20.19;48.31;96708.38;10463996;28;20439;-56
2023/03/04 16:37:43;;;;;;;16.35;9.63;;;;;;;20.17;48.65;96714.16;10464535;28;20053;-57
2023/03/04 16:43:03;;;;;;;13.43;9.32;;;;;;;20.16;49.25;96704.44;10463710;28;20505;-56
2023/03/04 16:48:22;;;;;;;12.57;7.95;;;;;;;20.18;49.71;96709.50;10463931;28;20067;-56
2023/03/04 16:53:44;;;;;;;15.05;9.55;;;;;;;20.15;48.05;96705.56;10463543;28;20417;-57
2023/03/04 16:59:03;;;;;;;10.82;6.30;;;;;;;20.13;47.73;96713.19;10448615;28;20053;-56
2023/03/04 17:04:23;;;;;;;6.95;5.18;;;;;;;20.09;47.42;96706.84;10476527;28;20051;-57
2023/03/04 17:09:43;;;;;;;9.10;5.20;;;;;;;20.07;46.88;96715.31;10462987;28;20045;-57
2023/03/04 17:15:03;;;;;;;8.15;5.10;;;;;;;20.06;46.65;96713.72;10463169;28;20053;-56
2023/03/04 17:20:22;;;;;;;8.13;4.65;;;;;;;20.04;46.26;96710.56;10459627;28;20049;-57
2023/03/04 17:25:42;;;;;;;7.72;4.63;;;;;;;20.04;46.36;96710.56;10454787;28;20049;-57
2023/03/04 17:31:08;;;;;;;6.97;4.38;;;;;;;20.03;46.08;96713.59;10461220;28;20455;-56
2023/03/04 17:36:27;;;;;;;7.18;3.92;;;;;;;20.03;46.05;96710.88;10462605;28;20060;-57
2023/03/04 17:41:49;;;;;;;7.75;3.92;;;;;;;20.02;46.19;96714.72;10461302;28;20057;-57
2023/03/04 17:47:09;;;;;;;5.97;3.80;;;;;;;20.01;46.19;96715.84;10461988;28;20057;-56
2023/03/04 17:52:28;;;;;;;5.13;3.58;;;;;;;19.98;44.95;96708.41;10460763;28;20065;-56
2023/03/04 17:57:51;;;;;;;5.55;3.28;;;;;;;19.96;45.12;96703.31;10461915;28;20048;-57
2023/03/04 18:03:12;;;;;;;6.55;3.05;;;;;;;19.93;45.17;96701.25;10460174;28;20063;-56
2023/03/04 18:08:31;;;;;;;4.38;2.80;;;;;;;19.92;45.21;96702.38;10444195;28;20055;-56
2023/03/04 18:13:51;;;;;;;5.15;2.75;;;;;;;19.90;45.03;96696.53;10459659;28;20496;-54
2023/03/04 18:19:10;;;;;;;6.47;2.83;;;;;;;19.87;45.14;96703.34;10460350;28;20543;-54
2023/03/04 18:24:30;;;;;;;3.67;2.75;;;;;;;19.87;45.10;96708.75;10460665;28;20057;-53
2023/03/04 18:29:49;;;;;;;2.75;2.25;;;;;;;19.86;45.19;96706.41;10458298;28;20057;-54
2023/03/04 18:35:08;;;;;;;3.42;2.53;;;;;;;19.84;45.30;96706.72;10458149;28;20057;-53
2023/03/04 18:40:28;;;;;;;4.65;2.83;;;;;;;19.83;44.96;96709.75;10459549;28;20056;-55
2023/03/04 18:45:52;;;;;;;3.45;2.30;;;;;;;19.81;45.01;96710.06;10459605;28;20060;-55
2023/03/04 18:51:11;;;;;;;3.03;2.50;;;;;;;19.79;45.12;96704.22;10458582;28;20068;-56
2023/03/04 18:56:37;;;;;;;5.13;2.40;;;;;;;19.81;45.33;96701.19;10459266;28;20056;-55
2023/03/04 19:01:57;;;;;;;3.65;2.35;;;;;;;19.80;45.17;96702.28;10458556;28;20056;-55
2023/03/04 19:07:16;;;;;;;2.50;2.13;;;;;;;19.79;45.27;96704.22;10458280;28;20053;-55
2023/03/04 19:12:36;;;;;;;6.28;2.03;;;;;;;19.81;45.44;96710.06;10457854;28;20048;-51
2023/03/04 19:17:55;;;;;;;3.50;2.20;;;;;;;19.81;45.27;96717.41;10458762;28;20102;-51
2023/03/04 19:23:15;;;;;;;4.35;2.28;;;;;;;19.82;45.38;96719.78;10457602;28;20045;-53
2023/03/04 19:28:35;;;;;;;5.63;2.40;;;;;;;19.84;45.42;96724.88;10457595;28;20060;-51
2023/03/04 19:33:54;;;;;;;2.75;2.00;;;;;;;19.86;45.48;96726.13;10443370;28;20049;-52
2023/03/04 19:39:14;;;;;;;4.35;2.05;;;;;;;19.86;45.51;96718.00;10456559;28;20056;-51
2023/03/04 19:44:34;;;;;;;3.03;2.20;;;;;;;19.89;45.59;96716.53;10457608;28;20083;-50
2023/03/04 19:49:53;;;;;;;4.13;2.10;;;;;;;19.90;45.63;96716.22;10456368;28;20083;-51
2023/03/04 19:55:12;;;;;;;2.92;2.03;;;;;;;19.92;45.54;96715.91;10469777;28;20041;-51
2023/03/04 20:00:32;;;;;;;3.53;2.20;;;;;;;19.93;45.59;96715.59;10456722;28;20052;-52
2023/03/04 20:06:09;;;;;;;4.28;2.22;;;;;;;19.95;45.64;96707.94;10456134;28;20061;-51
2023/03/04 20:11:30;;;;;;;2.90;1.90;;;;;;;19.98;45.53;96716.50;10456717;28;20087;-52
2023/03/04 20:16:49;;;;;;;2.35;1.77;;;;;;;20.01;45.36;96713.13;10456464;28;20057;-50
2023/03/04 20:22:09;;;;;;;3.00;2.00;;;;;;;20.02;45.53;96717.44;10455944;28;20098;-50
2023/03/04 20:27:29;;;;;;;2.13;1.77;;;;;;;20.06;45.74;96715.66;10455706;28;20500;-52
2023/03/04 20:32:48;;;;;;;3.08;1.85;;;;;;;20.07;45.66;96709.91;10453363;28;20053;-52
2023/03/04 20:38:08;;;;;;;3.28;2.10;;;;;;;20.09;45.41;96709.56;10454018;28;20057;-52
2023/03/04 20:43:30;;;;;;;2.15;1.70;;;;;;;20.12;45.50;96706.22;10454436;28;20063;-52
2023/03/04 20:48:49;;;;;;;2.33;1.70;;;;;;;20.15;45.32;96714.47;10456013;28;20429;-56
2023/03/04 20:54:09;;;;;;;4.82;1.70;;;;;;;20.18;45.34;96714.94;10456116;28;20056;-51
2023/03/04 20:59:29;;;;;;;2.20;1.50;;;;;;;20.19;45.10;96706.50;10455162;28;20056;-53
2023/03/04 21:04:48;;;;;;;2.95;1.80;;;;;;;20.21;45.23;96712.34;10459116;28;20076;-53
2023/03/04 21:10:08;;;;;;;1.90;1.50;;;;;;;20.23;45.18;96714.72;10463348;28;20053;-53
2023/03/04 21:15:27;;;;;;;2.45;1.77;;;;;;;20.23;44.85;96715.53;10463362;28;20060;-53
2023/03/04 21:20:47;;;;;;;2.70;1.60;;;;;;;20.24;45.06;96708.97;10463070;28;20045;-56
2023/03/04 21:26:07;;;;;;;2.55;1.63;;;;;;;20.25;44.86;96705.16;10462127;28;20064;-56
2023/03/04 21:31:33;;;;;;;3.88;1.60;;;;;;;20.25;44.60;96705.16;10462700;28;20060;-56
2023/03/04 21:36:53;;;;;;;2.83;1.67;;;;;;;20.26;44.83;96706.72;10462618;28;20064;-56
2023/03/04 21:42:12;;;;;;;2.83;1.60;;;;;;;20.26;44.66;96700.53;10462062;28;20057;-56
2023/03/04 21:47:33;;;;;;;2.50;1.30;;;;;;;20.26;44.74;96695.91;10446239;28;20516;-56
2023/03/04 21:52:52;;;;;;;2.45;1.67;;;;;;;20.26;44.66;96695.91;10460910;28;20053;-55
2023/03/04 21:58:12;;;;;;;2.42;1.60;;;;;;;20.27;44.92;96697.50;10461074;28;20059;-56
2023/03/04 22:03:31;;;;;;;3.90;1.88;;;;;;;20.29;44.89;96694.47;10461392;28;20106;-56
2023/03/04 22:08:56;;;;;;;4.57;2.28;;;;;;;20.30;44.85;96685.22;10460819;28;20061;-56
2023/03/04 22:14:16;;;;;;;3.28;1.65;;;;;;;20.30;45.07;96683.31;10460761;28;20053;-55
2023/03/04 22:19:35;;;;;;;3.72;2.10;;;;;;;20.32;44.96;96685.69;10459564;28;20473;-55
2023/03/04 22:24:56;;;;;;;4.72;2.28;;;;;;;20.33;45.23;96679.94;10460824;28;20060;-55
2023/03/04 22:30:16;;;;;;;3.22;2.00;;;;;;;20.35;45.26;96685.81;10460107;28;20045;-55
2023/03/04 22:35:39;;;;;;;3.10;1.80;;;;;;;20.37;45.05;96682.78;10460317;28;20056;-55
2023/03/04 22:40:59;;;;;;;3.58;1.80;;;;;;;20.39;45.38;96682.47;10459451;28;20059;-54
2023/03/04 22:46:27;;;;;;;3.08;1.83;;;;;;;20.42;45.44;96684.47;10459560;28;20064;-55
2023/03/04 22:51:46;;;;;;;3.03;1.80;;;;;;;20.43;45.40;96680.66;10458978;28;20053;-55
2023/03/04 22:57:06;;;;;;;3.28;1.92;;;;;;;20.43;45.29;96683.38;10459609;28;20056;-55
2023/03/04 23:02:25;;;;;;;4.15;2.00;;;;;;;20.44;45.41;96674.13;10459326;28;20111;-55
2023/03/04 23:07:44;;;;;;;4.28;2.33;;;;;;;20.44;45.29;96685.72;10458866;28;20048;-55
2023/03/04 23:13:04;;;;;;;4.13;2.08;;;;;;;20.44;45.35;96680.31;10458736;28;20063;-55
2023/03/04 23:18:24;;;;;;;3.88;1.85;;;;;;;20.47;45.22;96684.28;10458344;28;20412;-55
2023/03/04 23:23:44;;;;;;;2.15;1.65;;;;;;;20.45;45.01;96681.13;10471263;28;20570;-55
2023/03/04 23:29:05;;;;;;;3.08;1.80;;;;;;;20.46;45.29;96677.28;10456597;28;20064;-55
2023/03/04 23:34:25;;;;;;;3.17;1.77;;;;;;;20.45;45.14;96670.31;10457808;28;20053;-54
2023/03/04 23:39:44;;;;;;;3.42;1.80;;;;;;;20.44;45.31;96671.41;10457871;28;20059;-55
2023/03/04 23:45:05;;;;;;;3.80;2.00;;;;;;;20.43;45.14;96667.91;10456799;28;20499;-55
2023/03/04 23:50:24;;;;;;;2.50;1.55;;;;;;;20.42;45.25;96666.31;10456840;28;20412;-55
2023/03/04 23:55:44;;;;;;;2.75;1.70;;;;;;;20.41;45.09;96663.97;10457287;28;20049;-54
